createdAt,value
2018-04-25T00:00:55.856Z,10.10
2018-04-25T00:03:24.890Z,11.60
2018-04-25T00:05:54.171Z,7.43
2018-04-25T00:08:22.375Z,11.23
2018-04-25T00:10:50.935Z,10.13
2018-04-25T00:13:20.259Z,11.57
2018-04-25T00:15:48.465Z,10.97
2018-04-25T00:18:16.667Z,20.03
2018-04-25T00:20:44.879Z,12.20
2018-04-25T00:23:13.090Z,11.50
2018-04-25T00:25:41.613Z,9.53
2018-04-25T00:28:09.811Z,12.50
2018-04-25T00:30:38.308Z,10.43
2018-04-25T00:33:06.509Z,13.00
2018-04-25T00:35:34.720Z,11.00
2018-04-25T00:38:02.931Z,9.20
2018-04-25T00:40:31.527Z,9.23
2018-04-25T00:43:07.563Z,10.47
2018-04-25T00:45:36.664Z,9.77
2018-04-25T00:48:04.784Z,11.87
2018-04-25T00:50:33.507Z,10.10
2018-04-25T00:53:03.012Z,8.97
2018-04-25T00:55:31.764Z,11.17
2018-04-25T00:57:59.977Z,10.30
2018-04-25T01:00:29.376Z,10.17
2018-04-25T01:03:04.496Z,15.33
2018-04-25T01:05:32.949Z,10.70
2018-04-25T01:08:01.148Z,11.70
2018-04-25T01:10:29.620Z,12.13
2018-04-25T01:12:58.144Z,10.63
2018-04-25T01:15:27.107Z,10.83
2018-04-25T01:17:55.319Z,13.40
2018-04-25T01:20:24.307Z,13.70
2018-04-25T01:22:54.195Z,10.40
2018-04-25T01:25:22.673Z,11.50
2018-04-25T01:27:53.548Z,15.67
2018-04-25T01:30:36.432Z,13.10
2018-04-25T01:33:04.605Z,11.37
2018-04-25T01:35:34.608Z,11.47
2018-04-25T01:38:03.583Z,10.43
2018-04-25T01:40:32.163Z,12.33
2018-04-25T01:43:07.405Z,10.73
2018-04-25T01:45:37.104Z,12.87
2018-04-25T01:48:06.692Z,14.90
2018-04-25T01:50:37.184Z,13.27
2018-04-25T01:53:18.138Z,12.63
2018-04-25T01:55:59.891Z,10.97
2018-04-25T01:58:40.490Z,12.33
2018-04-25T02:01:19.399Z,12.30
2018-04-25T02:03:58.827Z,9.30
2018-04-25T02:06:27.804Z,11.27
2018-04-25T02:08:56.818Z,10.80
2018-04-25T02:11:25.288Z,10.80
2018-04-25T02:13:54.781Z,9.93
2018-04-25T02:16:22.987Z,12.53
2018-04-25T02:18:51.187Z,13.77
2018-04-25T02:21:19.401Z,9.97
2018-04-25T02:23:47.604Z,12.10
2018-04-25T02:26:16.373Z,11.00
2018-04-25T02:28:45.059Z,11.00
2018-04-25T02:31:13.262Z,11.40
2018-04-25T02:33:41.469Z,10.90
2018-04-25T02:36:09.698Z,10.77
2018-04-25T02:38:38.666Z,10.47
2018-04-25T02:41:07.664Z,13.43
2018-04-25T02:43:35.868Z,12.90
2018-04-25T02:46:04.818Z,12.23
2018-04-25T02:48:33.029Z,11.80
2018-04-25T02:51:01.705Z,12.23
2018-04-25T02:53:29.921Z,14.50
2018-04-25T02:55:58.979Z,14.40
2018-04-25T02:58:27.192Z,13.30
2018-04-25T03:00:55.391Z,17.70
2018-04-25T03:03:28.939Z,10.00
2018-04-25T03:05:57.926Z,12.47
2018-04-25T03:08:26.143Z,11.20
2018-04-25T03:10:54.993Z,13.97
2018-04-25T03:13:23.203Z,14.47
2018-04-25T03:15:51.407Z,13.93
2018-04-25T03:18:19.627Z,12.40
2018-04-25T03:20:48.929Z,15.57
2018-04-25T03:23:18.627Z,10.70
2018-04-25T03:25:47.518Z,12.27
2018-04-25T03:28:16.412Z,13.77
2018-04-25T03:30:44.628Z,14.03
2018-04-25T03:33:12.836Z,11.87
2018-04-25T03:35:41.061Z,15.87
2018-04-25T03:38:10.036Z,14.83
2018-04-25T03:40:38.865Z,12.90
2018-04-25T03:43:07.409Z,13.17
2018-04-25T03:45:35.619Z,14.77
2018-04-25T03:48:03.824Z,14.20
2018-04-25T03:50:32.348Z,14.30
2018-04-25T03:53:01.684Z,13.43
2018-04-25T03:55:30.033Z,15.60
2018-04-25T03:57:58.235Z,12.50
2018-04-25T04:00:26.454Z,16.90
2018-04-25T04:02:54.683Z,13.10
2018-04-25T04:05:23.669Z,14.40
2018-04-25T04:07:52.839Z,16.03
2018-04-25T04:10:21.575Z,17.07
2018-04-25T04:12:50.115Z,15.00
2018-04-25T04:15:18.326Z,14.50
2018-04-25T04:17:46.535Z,14.40
2018-04-25T04:20:14.782Z,16.10
2018-04-25T04:22:43.447Z,13.17
2018-04-25T04:25:18.283Z,14.63
2018-04-25T04:27:48.868Z,16.77
2018-04-25T04:30:17.079Z,14.67
2018-04-25T04:32:46.052Z,15.87
2018-04-25T04:35:14.283Z,19.93
2018-04-25T04:37:42.496Z,14.07
2018-04-25T04:40:10.988Z,15.37
2018-04-25T04:42:39.510Z,12.87
2018-04-25T04:45:08.473Z,18.63
2018-04-25T04:47:36.671Z,13.77
2018-04-25T04:50:12.723Z,15.17
2018-04-25T04:52:41.985Z,14.60
2018-04-25T04:55:10.708Z,14.87
2018-04-25T04:57:39.680Z,22.23
2018-04-25T05:00:09.411Z,16.53
2018-04-25T05:02:38.413Z,13.67
2018-04-25T05:05:08.128Z,15.63
2018-04-25T05:07:37.091Z,16.17
2018-04-25T05:10:05.896Z,14.90
2018-04-25T05:12:35.179Z,13.67
2018-04-25T05:15:03.391Z,16.03
2018-04-25T05:17:31.603Z,12.07
2018-04-25T05:20:00.144Z,15.30
2018-04-25T05:22:29.794Z,15.37
2018-04-25T05:24:59.164Z,16.37
2018-04-25T05:27:27.372Z,15.03
2018-04-25T05:29:56.672Z,13.10
2018-04-25T05:32:24.879Z,16.70
2018-04-25T05:34:53.088Z,12.20
2018-04-25T05:37:21.338Z,14.07
2018-04-25T05:39:50.403Z,12.67
2018-04-25T05:42:19.069Z,16.10
2018-04-25T05:44:47.284Z,15.07
2018-04-25T05:47:15.883Z,13.70
2018-04-25T05:49:48.672Z,12.87
2018-04-25T05:52:17.643Z,16.20
2018-04-25T05:54:45.848Z,16.77
2018-04-25T05:57:15.300Z,13.07
2018-04-25T05:59:43.510Z,17.43
2018-04-25T06:02:11.711Z,11.20
2018-04-25T06:04:40.752Z,12.67
2018-04-25T06:07:09.052Z,14.87
2018-04-25T06:09:37.771Z,12.73
2018-04-25T06:12:06.752Z,11.43
2018-04-25T06:14:35.729Z,10.87
2018-04-25T06:17:04.011Z,10.87
2018-04-25T06:19:32.217Z,15.83
2018-04-25T06:22:00.684Z,10.70
2018-04-25T06:24:29.279Z,14.20
2018-04-25T06:26:58.252Z,10.47
2018-04-25T06:29:26.810Z,12.23
2018-04-25T06:31:55.289Z,9.67
2018-04-25T06:34:24.257Z,9.80
2018-04-25T06:36:52.472Z,12.83
2018-04-25T06:39:20.926Z,8.23
2018-04-25T06:41:49.499Z,12.90
2018-04-25T06:44:17.691Z,9.10
2018-04-25T06:46:46.203Z,11.47
2018-04-25T06:49:15.090Z,7.33
2018-04-25T06:51:43.571Z,7.40
2018-04-25T06:54:11.771Z,12.00
2018-04-25T06:56:40.847Z,7.20
2018-04-25T06:59:08.995Z,13.50
2018-04-25T07:01:37.205Z,10.27
2018-04-25T07:04:05.942Z,11.83
2018-04-25T07:06:34.052Z,9.60
2018-04-25T07:09:02.556Z,7.87
2018-04-25T07:11:30.747Z,9.77
2018-04-25T07:13:59.763Z,9.30
2018-04-25T07:16:27.942Z,6.87
2018-04-25T07:18:56.140Z,8.37
2018-04-25T07:21:24.855Z,8.97
2018-04-25T07:23:53.399Z,6.10
2018-04-25T07:26:21.541Z,7.80
2018-04-25T07:28:50.760Z,4.83
2018-04-25T07:31:18.962Z,10.50
2018-04-25T07:33:47.171Z,7.07
2018-04-25T07:36:16.200Z,5.40
2018-04-25T07:38:44.374Z,8.43
2018-04-25T07:41:13.413Z,10.73
2018-04-25T07:43:41.676Z,7.77
2018-04-25T07:46:09.879Z,6.70
2018-04-25T07:48:38.077Z,5.77
2018-04-25T07:51:06.631Z,6.47
2018-04-25T07:53:34.840Z,10.53
2018-04-25T07:56:03.099Z,5.70
2018-04-25T07:58:31.306Z,8.60
2018-04-25T08:00:59.519Z,12.17
2018-04-25T08:03:27.797Z,10.73
2018-04-25T08:05:56.519Z,6.97
2018-04-25T08:08:24.669Z,10.47
2018-04-25T08:10:53.492Z,8.00
2018-04-25T08:13:34.233Z,7.97
2018-04-25T08:16:14.181Z,7.53
2018-04-25T08:32:10.608Z,6.60
2018-04-25T08:34:39.160Z,9.53
2018-04-25T08:37:07.368Z,7.20
2018-04-25T08:39:36.077Z,7.77
2018-04-25T08:42:04.561Z,6.20
2018-04-25T08:44:32.783Z,8.20
2018-04-25T08:47:00.956Z,8.90
2018-04-25T08:49:29.484Z,9.90
2018-04-25T08:51:58.053Z,5.23
2018-04-25T08:54:26.249Z,6.90
2018-04-25T08:56:54.685Z,6.73
2018-04-25T08:59:22.890Z,12.83
2018-04-25T09:01:52.037Z,9.23
2018-04-25T09:04:21.442Z,7.20
2018-04-25T09:06:49.649Z,7.43
2018-04-25T09:09:18.437Z,5.53
2018-04-25T09:11:46.631Z,8.97
2018-04-25T09:14:14.845Z,9.40
2018-04-25T09:16:43.820Z,14.10
2018-04-25T09:19:12.796Z,7.30
2018-04-25T09:21:41.709Z,6.60
2018-04-25T09:24:10.960Z,9.10
2018-04-25T09:26:39.217Z,6.33
2018-04-25T09:29:08.155Z,10.83
2018-04-25T09:31:36.367Z,5.87
2018-04-25T09:34:04.556Z,8.97
2018-04-25T09:36:32.832Z,4.83
2018-04-25T09:39:02.092Z,6.80
2018-04-25T09:41:30.705Z,11.03
2018-04-25T09:43:58.907Z,8.30
2018-04-25T09:46:27.120Z,15.33
2018-04-25T09:48:55.324Z,8.80
2018-04-25T09:51:24.565Z,11.43
2018-04-25T09:53:52.772Z,6.33
2018-04-25T09:56:21.050Z,8.30
2018-04-25T09:58:49.253Z,7.40
2018-04-25T10:01:25.028Z,8.60
2018-04-25T10:03:53.612Z,6.90
2018-04-25T10:06:21.803Z,7.60
2018-04-25T10:08:50.783Z,9.27
2018-04-25T10:11:19.031Z,5.57
2018-04-25T10:13:47.227Z,6.10
2018-04-25T10:16:15.436Z,6.27
2018-04-25T10:18:43.631Z,8.73
2018-04-25T10:21:15.224Z,8.67
2018-04-25T10:23:44.948Z,13.83
2018-04-25T10:26:13.148Z,7.40
2018-04-25T10:28:43.114Z,5.93
2018-04-25T10:31:11.316Z,6.37
2018-04-25T10:33:39.512Z,7.70
2018-04-25T10:36:08.583Z,7.60
2018-04-25T10:38:37.871Z,9.13
2018-04-25T10:41:06.971Z,8.40
2018-04-25T10:43:36.448Z,9.13
2018-04-25T10:46:04.660Z,8.60
2018-04-25T10:48:32.852Z,6.60
2018-04-25T10:51:01.280Z,6.47
2018-04-25T10:53:29.479Z,7.03
2018-04-25T10:55:58.873Z,8.60
2018-04-25T10:58:28.210Z,6.40
2018-04-25T11:00:56.435Z,5.97
2018-04-25T11:03:24.635Z,9.83
2018-04-25T11:05:54.268Z,7.63
2018-04-25T11:08:22.546Z,9.70
2018-04-25T11:10:51.483Z,6.93
2018-04-25T11:13:19.684Z,5.13
2018-04-25T11:15:48.320Z,5.77
2018-04-25T11:18:16.516Z,7.77
2018-04-25T11:20:44.715Z,9.00
2018-04-25T11:23:19.406Z,7.47
2018-04-25T11:25:47.617Z,9.93
2018-04-25T11:28:15.935Z,8.70
2018-04-25T11:30:44.134Z,5.93
2018-04-25T11:33:12.339Z,7.10
2018-04-25T11:35:40.815Z,7.33
2018-04-25T11:38:09.031Z,5.60
2018-04-25T11:40:37.292Z,9.43
2018-04-25T11:43:06.329Z,6.50
2018-04-25T11:45:34.531Z,10.17
2018-04-25T11:48:03.244Z,12.00
2018-04-25T11:50:32.736Z,8.40
2018-04-25T11:53:00.931Z,5.50
2018-04-25T11:55:30.662Z,10.10
2018-04-25T11:57:58.863Z,8.03
2018-04-25T12:00:27.077Z,13.03
2018-04-25T12:02:55.396Z,4.60
2018-04-25T12:05:24.298Z,4.43
2018-04-25T12:07:52.840Z,5.97
2018-04-25T12:10:22.676Z,5.30
2018-04-25T12:12:51.345Z,9.70
2018-04-25T12:15:20.420Z,5.63
2018-04-25T12:17:48.627Z,6.17
2018-04-25T12:20:16.852Z,6.77
2018-04-25T12:22:45.147Z,5.37
2018-04-25T12:25:13.596Z,6.40
2018-04-25T12:27:42.315Z,6.33
2018-04-25T12:30:10.520Z,5.73
2018-04-25T12:32:40.000Z,5.20
2018-04-25T12:35:08.213Z,5.90
2018-04-25T12:37:37.185Z,6.83
2018-04-25T12:40:06.588Z,6.57
2018-04-25T12:42:35.540Z,15.27
2018-04-25T12:45:03.740Z,4.60
2018-04-25T12:47:31.953Z,8.10
2018-04-25T12:50:01.518Z,5.73
2018-04-25T12:52:30.646Z,4.17
2018-04-25T12:55:00.984Z,9.23
2018-04-25T12:57:29.216Z,4.20
2018-04-25T12:59:57.953Z,4.80
2018-04-25T13:02:26.160Z,10.43
2018-04-25T13:04:55.741Z,7.57
2018-04-25T13:07:24.224Z,4.77
2018-04-25T13:09:52.872Z,3.40
2018-04-25T13:12:21.132Z,4.27
2018-04-25T13:14:49.299Z,4.60
2018-04-25T13:17:17.580Z,6.73
2018-04-25T13:19:45.775Z,7.13
2018-04-25T13:22:15.088Z,3.90
2018-04-25T13:24:44.472Z,5.60
2018-04-25T13:27:13.284Z,6.63
2018-04-25T13:29:41.862Z,4.53
2018-04-25T13:32:10.887Z,4.00
2018-04-25T13:34:39.101Z,3.40
2018-04-25T13:37:07.295Z,3.23
2018-04-25T13:39:36.115Z,4.20
2018-04-25T13:42:05.296Z,6.50
2018-04-25T13:44:33.501Z,4.40
2018-04-25T13:47:01.710Z,6.70
2018-04-25T13:49:30.431Z,4.47
2018-04-25T13:51:59.344Z,4.20
2018-04-25T13:54:28.378Z,3.57
2018-04-25T13:56:56.653Z,3.40
2018-04-25T13:59:28.355Z,11.03
2018-04-25T14:01:56.976Z,9.23
2018-04-25T14:04:25.316Z,3.17
2018-04-25T14:06:53.511Z,4.90
2018-04-25T14:09:22.512Z,9.80
2018-04-25T14:11:51.480Z,3.73
2018-04-25T14:14:19.676Z,8.47
2018-04-25T14:16:47.901Z,4.17
2018-04-25T14:19:16.111Z,5.37
2018-04-25T14:21:45.554Z,4.93
2018-04-25T14:24:13.849Z,6.30
2018-04-25T14:26:55.601Z,4.47
2018-04-25T14:29:24.576Z,7.20
2018-04-25T14:31:53.868Z,4.43
2018-04-25T14:34:22.080Z,5.77
2018-04-25T14:36:51.032Z,5.43
2018-04-25T14:39:20.019Z,9.20
2018-04-25T14:41:48.538Z,4.63
2018-04-25T14:44:16.740Z,5.10
2018-04-25T14:46:44.949Z,3.90
2018-04-25T14:49:28.963Z,5.70
2018-04-25T14:51:57.319Z,12.90
2018-04-25T14:54:26.691Z,11.83
2018-04-25T14:56:56.064Z,3.70
2018-04-25T14:59:24.264Z,3.47
2018-04-25T15:01:52.488Z,3.77
2018-04-25T15:04:21.330Z,4.47
2018-04-25T15:06:49.529Z,4.37
2018-04-25T15:09:18.170Z,6.07
2018-04-25T15:11:46.369Z,4.33
2018-04-25T15:14:14.590Z,6.40
2018-04-25T15:16:43.555Z,4.83
2018-04-25T15:19:11.765Z,3.47
2018-04-25T15:21:40.839Z,5.50
2018-04-25T15:24:10.817Z,3.10
2018-04-25T15:26:39.412Z,4.20
2018-04-25T15:29:07.940Z,4.90
2018-04-25T15:31:36.139Z,4.73
2018-04-25T15:34:04.343Z,4.30
2018-04-25T15:36:32.563Z,4.33
2018-04-25T15:39:01.968Z,6.00
2018-04-25T15:41:31.454Z,3.93
2018-04-25T15:43:59.664Z,6.37
2018-04-25T15:46:27.891Z,4.07
2018-04-25T15:48:56.119Z,7.43
2018-04-25T15:51:24.407Z,3.00
2018-04-25T15:53:52.721Z,4.23
2018-04-25T15:56:21.309Z,4.30
2018-04-25T15:58:49.511Z,7.93
2018-04-25T16:01:18.917Z,3.97
2018-04-25T16:03:55.252Z,2.70
2018-04-25T16:06:23.472Z,6.00
2018-04-25T16:08:52.835Z,2.50
2018-04-25T16:11:21.032Z,5.03
2018-04-25T16:13:50.644Z,4.47
2018-04-25T16:16:18.846Z,5.50
2018-04-25T16:18:47.096Z,5.57
2018-04-25T16:21:16.968Z,7.23
2018-04-25T16:23:46.747Z,4.00
2018-04-25T16:26:15.699Z,3.13
2018-04-25T16:28:44.061Z,3.70
2018-04-25T16:31:12.318Z,4.33
2018-04-25T16:33:40.496Z,3.73
2018-04-25T16:36:08.747Z,4.70
2018-04-25T16:38:37.278Z,3.17
2018-04-25T16:41:06.496Z,4.80
2018-04-25T16:43:37.232Z,4.73
2018-04-25T16:46:06.192Z,3.93
2018-04-25T16:48:34.797Z,4.90
2018-04-25T16:51:03.478Z,7.47
2018-04-25T16:53:31.672Z,2.17
2018-04-25T16:56:00.169Z,2.10
2018-04-25T16:58:28.880Z,1.77
2018-04-25T17:00:57.468Z,1.63
2018-04-25T17:03:25.912Z,2.53
2018-04-25T17:05:55.387Z,2.50
2018-04-25T17:08:23.603Z,3.10
2018-04-25T17:10:52.166Z,1.47
2018-04-25T17:13:20.393Z,3.20
2018-04-25T17:15:48.592Z,1.80
2018-04-25T17:18:16.812Z,1.80
2018-04-25T17:20:46.089Z,2.13
2018-04-25T17:23:15.001Z,1.37
2018-04-25T17:25:43.588Z,1.70
2018-04-25T17:28:12.012Z,3.27
2018-04-25T17:30:40.633Z,1.77
2018-04-25T17:33:08.843Z,1.80
2018-04-25T17:35:37.304Z,1.63
2018-04-25T17:38:06.278Z,1.57
2018-04-25T17:40:35.986Z,2.37
2018-04-25T17:43:04.871Z,1.60
2018-04-25T17:45:33.079Z,1.63
2018-04-25T17:48:02.049Z,3.77
2018-04-25T17:50:30.861Z,1.60
2018-04-25T17:52:59.827Z,2.27
2018-04-25T17:55:28.848Z,1.50
2018-04-25T17:57:57.921Z,2.67
2018-04-25T18:00:26.127Z,1.73
2018-04-25T18:02:55.119Z,1.70
2018-04-25T18:05:24.214Z,2.30
2018-04-25T18:07:53.195Z,1.77
2018-04-25T18:10:22.640Z,1.50
2018-04-25T18:12:52.297Z,1.47
2018-04-25T18:15:20.856Z,1.40
2018-04-25T18:17:49.698Z,1.57
2018-04-25T18:20:19.219Z,3.40
2018-04-25T18:22:49.048Z,1.87
2018-04-25T18:25:17.254Z,1.50
2018-04-25T18:27:46.263Z,3.27
2018-04-25T18:30:14.472Z,1.50
2018-04-25T18:32:42.667Z,1.87
2018-04-25T18:35:10.887Z,1.97
2018-04-25T18:37:39.092Z,1.90
2018-04-25T18:40:08.596Z,1.73
2018-04-25T18:42:38.300Z,2.10
2018-04-25T18:45:07.799Z,1.90
2018-04-25T18:47:36.776Z,2.30
2018-04-25T18:50:05.524Z,2.37
2018-04-25T18:52:33.729Z,2.10
2018-04-25T18:55:02.680Z,2.40
2018-04-25T18:57:31.645Z,2.13
2018-04-25T18:59:59.845Z,2.23
2018-04-25T19:02:28.072Z,2.70
2018-04-25T19:04:57.731Z,2.40
2018-04-25T19:07:25.964Z,3.00
2018-04-25T19:09:54.392Z,2.53
2018-04-25T19:12:22.533Z,3.60
2018-04-25T19:14:52.990Z,4.43
2018-04-25T19:17:21.190Z,2.40
2018-04-25T19:19:49.989Z,2.83
2018-04-25T19:22:26.618Z,1.97
2018-04-25T19:24:55.852Z,2.50
2018-04-25T19:27:24.049Z,2.13
2018-04-25T19:29:52.285Z,4.33
2018-04-25T19:32:20.489Z,2.50
2018-04-25T19:34:49.012Z,2.73
2018-04-25T19:37:17.980Z,2.63
2018-04-25T19:39:46.688Z,2.93
2018-04-25T19:42:15.356Z,2.80
2018-04-25T19:44:43.585Z,2.30
2018-04-25T19:47:17.615Z,2.67
2018-04-25T19:49:53.036Z,2.80
2018-04-25T19:52:21.237Z,2.43
2018-04-25T19:54:49.434Z,2.30
2018-04-25T19:57:17.744Z,2.30
2018-04-25T19:59:45.987Z,3.30
2018-04-25T20:02:14.200Z,5.03
2018-04-25T20:04:43.715Z,2.10
2018-04-25T20:07:11.911Z,2.53
2018-04-25T20:09:40.460Z,4.90
2018-04-25T20:12:09.897Z,3.10
2018-04-25T20:14:38.467Z,2.10
2018-04-25T20:17:06.692Z,2.50
2018-04-25T20:19:34.879Z,2.57
2018-04-25T20:22:03.647Z,2.37
2018-04-25T20:24:31.939Z,3.00
2018-04-25T20:27:00.145Z,2.43
2018-04-25T20:29:29.549Z,3.70
2018-04-25T20:31:57.804Z,2.83
2018-04-25T20:34:25.951Z,3.47
2018-04-25T20:36:54.425Z,2.60
2018-04-25T20:39:23.172Z,3.20
2018-04-25T20:41:51.904Z,2.80
2018-04-25T20:44:20.106Z,4.63
2018-04-25T20:46:48.303Z,2.97
2018-04-25T20:49:17.282Z,3.10
2018-04-25T20:51:45.984Z,2.77
2018-04-25T20:54:14.184Z,3.60
2018-04-25T20:56:43.064Z,5.63
2018-04-25T20:59:12.044Z,3.60
2018-04-25T21:01:41.012Z,2.70
2018-04-25T21:04:10.061Z,3.10
2018-04-25T21:06:39.014Z,3.63
2018-04-25T21:09:07.705Z,4.73
2018-04-25T21:11:36.656Z,3.50
2018-04-25T21:14:04.853Z,4.07
2018-04-25T21:16:33.052Z,4.03
2018-04-25T21:19:01.265Z,4.40
2018-04-25T21:21:29.850Z,3.60
2018-04-25T21:23:58.381Z,3.87
2018-04-25T21:26:26.971Z,3.70
2018-04-25T21:28:55.177Z,3.60
2018-04-25T21:31:23.445Z,3.20
2018-04-25T21:33:51.965Z,3.70
2018-04-25T21:36:20.168Z,2.70
2018-04-25T21:38:48.400Z,2.53
2018-04-25T21:41:17.089Z,2.53
2018-04-25T21:43:45.361Z,2.70
2018-04-25T21:46:13.550Z,3.13
2018-04-25T21:48:41.739Z,3.57
2018-04-25T21:51:10.318Z,2.73
2018-04-25T21:53:38.512Z,3.30
2018-04-25T21:56:07.548Z,4.20
2018-04-25T21:58:36.519Z,4.20
2018-04-25T22:01:04.980Z,3.43
2018-04-25T22:03:33.212Z,5.47
2018-04-25T22:06:01.817Z,3.00
2018-04-25T22:08:30.297Z,3.03
2018-04-25T22:10:59.124Z,3.47
2018-04-25T22:13:27.320Z,3.10
2018-04-25T22:15:56.091Z,3.37
2018-04-25T22:18:24.294Z,2.90
2018-04-25T22:20:53.124Z,4.20
2018-04-25T22:23:21.756Z,4.83
2018-04-25T22:25:49.956Z,4.30
2018-04-25T22:28:18.732Z,4.30
2018-04-25T22:30:47.696Z,5.40
2018-04-25T22:33:15.900Z,5.23
2018-04-25T22:35:44.885Z,5.07
2018-04-25T22:38:13.079Z,3.80
2018-04-25T22:40:42.849Z,4.37
2018-04-25T22:43:11.503Z,5.30
2018-04-25T22:45:39.700Z,3.83
2018-04-25T22:48:07.914Z,3.40
2018-04-25T22:50:36.488Z,5.90
2018-04-25T22:53:04.689Z,4.43
2018-04-25T22:55:34.040Z,3.93
2018-04-25T22:58:02.239Z,6.27
2018-04-25T23:00:31.199Z,4.37
2018-04-25T23:02:59.419Z,3.50
2018-04-25T23:05:28.221Z,4.80
2018-04-25T23:07:57.189Z,4.07
2018-04-25T23:10:25.999Z,4.97
2018-04-25T23:12:54.196Z,4.50
2018-04-25T23:15:23.184Z,5.50
2018-04-25T23:17:52.140Z,4.67
2018-04-25T23:20:20.735Z,3.70
2018-04-25T23:22:49.220Z,3.83
2018-04-25T23:25:17.683Z,6.07
2018-04-25T23:27:45.884Z,3.50
2018-04-25T23:30:14.079Z,3.30
2018-04-25T23:32:42.307Z,3.33
2018-04-25T23:35:10.515Z,4.50
2018-04-25T23:37:38.769Z,3.10
2018-04-25T23:40:07.553Z,5.00
2018-04-25T23:42:36.473Z,3.87
2018-04-25T23:45:05.444Z,2.43
2018-04-25T23:47:33.644Z,3.23
2018-04-25T23:50:02.934Z,2.60
2018-04-25T23:52:31.130Z,3.03
2018-04-25T23:55:03.692Z,3.27
2018-04-25T23:57:31.896Z,2.67
